Main page
METAR-TAF:

METAR-TAF

Airports :

Örnsköldsvik Airport

Örnsköldsvik, Sweden

latitude: 63-24N, longitude: 018-58E, elevation: 103 m

Current weather observation

The report was made 33 minutes ago, at 21:50 UTC
Wind 1 kt from variable directions
Temperature 2°C
Humidity 93%
Pressure 971 hPa
Visibility: 7000 m
light rain

METAR: ESNO 172150Z AUTO VRB01KT 7000 -RA SCT028/// OVC051/// 02/01 Q0971

Time: 23:23 (22:23 UTC)

Forecast

The report was made 4 hours and 53 minutes ago, at 17:30 UTC
Forecast valid from 17 at 18 UTC to 17 at 20 UTC
Wind 8 kt from the South
Visibility 10 km or more
no clouds below 1500 m and no cumulonimbus

TAF: ESNO 171730Z 1718/1720 19008KT CAVOK

Weather observations and forecasts of more than 4000 airports (METAR and TAF reports).

The available stations are represented by yellow and red dots on the map.

Hover mouse over dot to see the name of the station.

Then click to see weather observations and forecasts.

To change the map : click on the green buttons with a black cross to zoom in, on the green button with a dash to zoom out, or on the green arrows for adjacent maps.


METAR-TAF: